Accueil
METAR-TAF:

METAR-TAF

Aéroports :

Aéroport international du Caire

Le Caire, Égypte

latitude: 30-08N, longitude: 031-24E, altitude: 64 m

Observation

Le bulletin a été fait il y a 37 minutes, à 22:00 UTC
Vent 6 kt de nord
Température 16°C
Humidité 63%
Pression 1019 hPa
Visibilité 10 km ou plus
pas de nuages en-dessous de 1500 mètres et pas de cumulonimbus.

METAR: HECA 192200Z 35006KT CAVOK 16/09 Q1019 NOSIG

Heure: 00:37 (22:37 UTC)

Prévision

Le bulletin a été fait il y a 5 heures et 37 minutes, à 17:00 UTC
Prévision valable du 19 à 18 UTC au 20 à 24 UTC
Vent 11 kt de nord/nord-ouest
Visibilité 10 km ou plus
Nuages épars à une hauteur de 2500 ft
Temporairement
du 20 à 00 UTC au 20 à 06 UTC
Vent 3 kt de direction variable

TAF: HECA 191700Z 1918/2024 34011KT 9999 SCT025 TEMPO 2000/2006 VRB03KT 3000BR NSC

Observations et prévisions météorologiques de plus de 4000 aéroports (messages METAR et TAF).

Les stations disponibles sont représentées par des disques jaunes et rouges sur la carte.

Passer la souris dessus pour voir le nom de la station.

Cliquer dessus pour voir les observations et prévisions météorologiques.

Pour changer de carte: cliquez sur les boutons verts avec une croix noire pour zoomer, sur le bouton vert avec un tiret pour effectuer un zoom arrière, ou sur les flèches vertes pour les cartes adjacentes.


METAR-TAF: